sensor_id;sensor_type;location;lat;lon;timestamp;pressure;altitude;pressure_sealevel;temperature;humidity
12624;BME280;6377;42.836;23.998;2023-04-29T00:00:15;95772.13;;;6.40;100.00
12624;BME280;6377;42.836;23.998;2023-04-29T00:02:42;95778.50;;;6.38;100.00
12624;BME280;6377;42.836;23.998;2023-04-29T00:05:09;95784.59;;;6.38;100.00
12624;BME280;6377;42.836;23.998;2023-04-29T00:07:37;95783.47;;;6.41;100.00
12624;BME280;6377;42.836;23.998;2023-04-29T00:10:05;95786.47;;;6.46;100.00
12624;BME280;6377;42.836;23.998;2023-04-29T00:12:33;95787.56;;;6.26;100.00
12624;BME280;6377;42.836;23.998;2023-04-29T00:15:01;95779.47;;;6.19;100.00
12624;BME280;6377;42.836;23.998;2023-04-29T00:17:29;95754.38;;;5.89;100.00
12624;BME280;6377;42.836;23.998;2023-04-29T00:19:56;95773.81;;;5.96;100.00
12624;BME280;6377;42.836;23.998;2023-04-29T00:22:23;95774.94;;;5.94;100.00
12624;BME280;6377;42.836;23.998;2023-04-29T00:24:50;95778.25;;;5.96;100.00
12624;BME280;6377;42.836;23.998;2023-04-29T00:27:18;95770.38;;;5.96;100.00
12624;BME280;6377;42.836;23.998;2023-04-29T00:29:46;95776.72;;;5.93;100.00
12624;BME280;6377;42.836;23.998;2023-04-29T00:32:13;95770.50;;;5.94;100.00
12624;BME280;6377;42.836;23.998;2023-04-29T00:34:40;95766.22;;;5.93;100.00
12624;BME280;6377;42.836;23.998;2023-04-29T00:37:08;95760.38;;;5.99;100.00
12624;BME280;6377;42.836;23.998;2023-04-29T00:39:35;95761.38;;;5.98;100.00
12624;BME280;6377;42.836;23.998;2023-04-29T00:42:02;95733.41;;;5.80;100.00
12624;BME280;6377;42.836;23.998;2023-04-29T00:44:30;95743.50;;;5.57;100.00
12624;BME280;6377;42.836;23.998;2023-04-29T00:46:58;95754.81;;;5.57;100.00
12624;BME280;6377;42.836;23.998;2023-04-29T00:49:25;95758.41;;;5.56;100.00
12624;BME280;6377;42.836;23.998;2023-04-29T00:51:53;95758.78;;;5.61;100.00
12624;BME280;6377;42.836;23.998;2023-04-29T00:54:22;95752.00;;;5.69;100.00
12624;BME280;6377;42.836;23.998;2023-04-29T00:56:50;95748.09;;;5.73;100.00
12624;BME280;6377;42.836;23.998;2023-04-29T00:59:18;95684.38;;;5.35;100.00
12624;BME280;6377;42.836;23.998;2023-04-29T01:01:47;95733.63;;;5.69;100.00
12624;BME280;6377;42.836;23.998;2023-04-29T01:04:16;95708.75;;;5.45;100.00
12624;BME280;6377;42.836;23.998;2023-04-29T01:06:49;95737.88;;;5.70;100.00
12624;BME280;6377;42.836;23.998;2023-04-29T01:09:28;95722.94;;;5.52;100.00
12624;BME280;6377;42.836;23.998;2023-04-29T01:12:19;95743.34;;;5.58;100.00
12624;BME280;6377;42.836;23.998;2023-04-29T01:14:52;95738.97;;;5.49;100.00
12624;BME280;6377;42.836;23.998;2023-04-29T01:17:24;95742.91;;;5.36;100.00
12624;BME280;6377;42.836;23.998;2023-04-29T01:19:54;95730.91;;;5.33;100.00
12624;BME280;6377;42.836;23.998;2023-04-29T01:22:22;95734.47;;;5.32;100.00
12624;BME280;6377;42.836;23.998;2023-04-29T01:24:51;95739.75;;;5.23;100.00
12624;BME280;6377;42.836;23.998;2023-04-29T01:27:27;95736.63;;;5.19;100.00
12624;BME280;6377;42.836;23.998;2023-04-29T01:30:00;95719.97;;;5.11;100.00
12624;BME280;6377;42.836;23.998;2023-04-29T01:32:36;95732.44;;;5.26;100.00
12624;BME280;6377;42.836;23.998;2023-04-29T01:35:12;95705.16;;;5.19;100.00
12624;BME280;6377;42.836;23.998;2023-04-29T01:37:48;95611.94;;;4.43;100.00
12624;BME280;6377;42.836;23.998;2023-04-29T01:40:25;95730.56;;;5.19;100.00
12624;BME280;6377;42.836;23.998;2023-04-29T01:42:59;95733.00;;;5.20;100.00
12624;BME280;6377;42.836;23.998;2023-04-29T01:45:28;95727.09;;;5.18;100.00
12624;BME280;6377;42.836;23.998;2023-04-29T01:47:56;95677.47;;;4.70;100.00
12624;BME280;6377;42.836;23.998;2023-04-29T01:50:25;95713.38;;;4.97;100.00
12624;BME280;6377;42.836;23.998;2023-04-29T01:52:52;95704.69;;;4.96;100.00
12624;BME280;6377;42.836;23.998;2023-04-29T01:55:21;95665.63;;;4.66;100.00
12624;BME280;6377;42.836;23.998;2023-04-29T01:57:48;95724.66;;;5.07;100.00
12624;BME280;6377;42.836;23.998;2023-04-29T02:00:15;95729.91;;;5.07;100.00
12624;BME280;6377;42.836;23.998;2023-04-29T02:02:43;95724.66;;;5.07;100.00
12624;BME280;6377;42.836;23.998;2023-04-29T02:05:10;95694.00;;;4.71;100.00
12624;BME280;6377;42.836;23.998;2023-04-29T02:07:37;95716.19;;;4.76;100.00
12624;BME280;6377;42.836;23.998;2023-04-29T02:10:05;95724.91;;;4.67;100.00
12624;BME280;6377;42.836;23.998;2023-04-29T02:12:34;95669.13;;;4.38;100.00
12624;BME280;6377;42.836;23.998;2023-04-29T02:15:01;95715.50;;;4.74;100.00
12624;BME280;6377;42.836;23.998;2023-04-29T02:17:28;95718.25;;;4.82;100.00
12624;BME280;6377;42.836;23.998;2023-04-29T02:19:55;95708.16;;;4.87;100.00
12624;BME280;6377;42.836;23.998;2023-04-29T02:22:23;95631.78;;;4.36;100.00
12624;BME280;6377;42.836;23.998;2023-04-29T02:24:50;95716.28;;;4.94;100.00
12624;BME280;6377;42.836;23.998;2023-04-29T02:27:17;95705.75;;;4.67;100.00
12624;BME280;6377;42.836;23.998;2023-04-29T02:29:46;95603.06;;;3.88;100.00
12624;BME280;6377;42.836;23.998;2023-04-29T02:32:13;95712.81;;;4.47;100.00
12624;BME280;6377;42.836;23.998;2023-04-29T02:34:44;95711.97;;;4.46;100.00
12624;BME280;6377;42.836;23.998;2023-04-29T02:37:11;95714.75;;;4.45;100.00
12624;BME280;6377;42.836;23.998;2023-04-29T02:39:40;95706.06;;;4.44;100.00
12624;BME280;6377;42.836;23.998;2023-04-29T02:42:07;95704.66;;;4.40;100.00
12624;BME280;6377;42.836;23.998;2023-04-29T02:44:34;95710.19;;;4.47;100.00
12624;BME280;6377;42.836;23.998;2023-04-29T02:47:03;95710.06;;;4.48;100.00
12624;BME280;6377;42.836;23.998;2023-04-29T02:49:30;95711.28;;;4.54;100.00
12624;BME280;6377;42.836;23.998;2023-04-29T02:51:57;95705.88;;;4.56;100.00
12624;BME280;6377;42.836;23.998;2023-04-29T02:54:25;95705.94;;;4.46;100.00
12624;BME280;6377;42.836;23.998;2023-04-29T02:56:52;95710.34;;;4.45;100.00
12624;BME280;6377;42.836;23.998;2023-04-29T02:59:19;95713.78;;;4.46;100.00
12624;BME280;6377;42.836;23.998;2023-04-29T03:01:47;95697.53;;;4.33;100.00
12624;BME280;6377;42.836;23.998;2023-04-29T03:04:16;95713.63;;;4.47;100.00
12624;BME280;6377;42.836;23.998;2023-04-29T03:06:43;95711.28;;;4.44;100.00
12624;BME280;6377;42.836;23.998;2023-04-29T03:09:10;95718.03;;;4.47;100.00
12624;BME280;6377;42.836;23.998;2023-04-29T03:11:39;95733.34;;;4.51;100.00
12624;BME280;6377;42.836;23.998;2023-04-29T03:14:06;95703.31;;;4.36;100.00
12624;BME280;6377;42.836;23.998;2023-04-29T03:16:34;95736.50;;;4.55;100.00
12624;BME280;6377;42.836;23.998;2023-04-29T03:19:01;95715.84;;;4.52;100.00
12624;BME280;6377;42.836;23.998;2023-04-29T03:21:30;95747.34;;;4.70;100.00
12624;BME280;6377;42.836;23.998;2023-04-29T03:23:57;95747.34;;;4.70;100.00
12624;BME280;6377;42.836;23.998;2023-04-29T03:26:24;95705.09;;;4.45;100.00
12624;BME280;6377;42.836;23.998;2023-04-29T03:28:51;95688.84;;;4.42;100.00
12624;BME280;6377;42.836;23.998;2023-04-29T03:31:19;95748.19;;;4.80;100.00
12624;BME280;6377;42.836;23.998;2023-04-29T03:33:47;95732.91;;;4.75;100.00
12624;BME280;6377;42.836;23.998;2023-04-29T03:36:15;95695.19;;;4.49;100.00
12624;BME280;6377;42.836;23.998;2023-04-29T03:38:44;95743.91;;;4.79;100.00
12624;BME280;6377;42.836;23.998;2023-04-29T03:41:11;95703.84;;;4.49;100.00
12624;BME280;6377;42.836;23.998;2023-04-29T03:43:38;95750.97;;;4.78;100.00
12624;BME280;6377;42.836;23.998;2023-04-29T03:46:08;95740.31;;;4.80;100.00
12624;BME280;6377;42.836;23.998;2023-04-29T03:48:36;95748.44;;;4.86;100.00
12624;BME280;6377;42.836;23.998;2023-04-29T03:51:03;95750.25;;;4.86;100.00
12624;BME280;6377;42.836;23.998;2023-04-29T03:53:30;95752.03;;;4.76;100.00
12624;BME280;6377;42.836;23.998;2023-04-29T03:55:59;95748.34;;;4.59;100.00
12624;BME280;6377;42.836;23.998;2023-04-29T03:58:27;95690.91;;;4.29;100.00
12624;BME280;6377;42.836;23.998;2023-04-29T04:00:54;95747.34;;;4.70;100.00
12624;BME280;6377;42.836;23.998;2023-04-29T04:03:21;95707.84;;;4.44;100.00
12624;BME280;6377;42.836;23.998;2023-04-29T04:05:50;95752.19;;;4.65;100.00
12624;BME280;6377;42.836;23.998;2023-04-29T04:08:17;95757.56;;;4.73;100.00
12624;BME280;6377;42.836;23.998;2023-04-29T04:10:44;95742.72;;;4.64;100.00
12624;BME280;6377;42.836;23.998;2023-04-29T04:13:13;95757.44;;;4.84;100.00
12624;BME280;6377;42.836;23.998;2023-04-29T04:15:40;95698.91;;;4.37;100.00
12624;BME280;6377;42.836;23.998;2023-04-29T04:18:07;95699.81;;;4.55;100.00
12624;BME280;6377;42.836;23.998;2023-04-29T04:20:36;95756.44;;;4.85;100.00
12624;BME280;6377;42.836;23.998;2023-04-29T04:23:03;95757.44;;;4.65;100.00
12624;BME280;6377;42.836;23.998;2023-04-29T04:25:31;95743.16;;;4.40;100.00
12624;BME280;6377;42.836;23.998;2023-04-29T04:27:58;95761.59;;;4.38;100.00
12624;BME280;6377;42.836;23.998;2023-04-29T04:30:26;95763.28;;;4.49;100.00
12624;BME280;6377;42.836;23.998;2023-04-29T04:32:53;95751.69;;;4.51;100.00
12624;BME280;6377;42.836;23.998;2023-04-29T04:35:21;95741.88;;;4.63;100.00
12624;BME280;6377;42.836;23.998;2023-04-29T04:37:48;95741.72;;;4.74;100.00
12624;BME280;6377;42.836;23.998;2023-04-29T04:40:15;95744.31;;;4.84;100.00
12624;BME280;6377;42.836;23.998;2023-04-29T04:42:42;95730.88;;;4.96;100.00
12624;BME280;6377;42.836;23.998;2023-04-29T04:45:10;95729.06;;;5.06;100.00
12624;BME280;6377;42.836;23.998;2023-04-29T04:47:40;95725.31;;;5.19;100.00
12624;BME280;6377;42.836;23.998;2023-04-29T04:50:08;95663.72;;;4.95;100.00
12624;BME280;6377;42.836;23.998;2023-04-29T04:52:35;95718.25;;;5.46;100.00
12624;BME280;6377;42.836;23.998;2023-04-29T04:55:03;95715.34;;;5.49;100.00
12624;BME280;6377;42.836;23.998;2023-04-29T04:57:30;95711.56;;;5.61;100.00
12624;BME280;6377;42.836;23.998;2023-04-29T04:59:57;95712.03;;;5.75;100.00
12624;BME280;6377;42.836;23.998;2023-04-29T05:02:24;95719.72;;;5.86;100.00
12624;BME280;6377;42.836;23.998;2023-04-29T05:04:53;95719.97;;;5.92;100.00
12624;BME280;6377;42.836;23.998;2023-04-29T05:07:20;95706.84;;;5.92;100.00
12624;BME280;6377;42.836;23.998;2023-04-29T05:09:48;95693.56;;;5.94;100.00
12624;BME280;6377;42.836;23.998;2023-04-29T05:12:18;95712.09;;;6.10;100.00
12624;BME280;6377;42.836;23.998;2023-04-29T05:14:45;95709.00;;;6.14;100.00
12624;BME280;6377;42.836;23.998;2023-04-29T05:17:12;95686.75;;;6.18;100.00
12624;BME280;6377;42.836;23.998;2023-04-29T05:19:39;95675.63;;;6.25;100.00
12624;BME280;6377;42.836;23.998;2023-04-29T05:22:08;95693.00;;;6.43;100.00
12624;BME280;6377;42.836;23.998;2023-04-29T05:24:35;95699.53;;;6.57;100.00
12624;BME280;6377;42.836;23.998;2023-04-29T05:27:02;95700.34;;;6.57;100.00
12624;BME280;6377;42.836;23.998;2023-04-29T05:29:30;95710.69;;;6.59;100.00
12624;BME280;6377;42.836;23.998;2023-04-29T05:31:57;95707.25;;;6.58;100.00
12624;BME280;6377;42.836;23.998;2023-04-29T05:34:24;95656.06;;;6.19;100.00
12624;BME280;6377;42.836;23.998;2023-04-29T05:36:51;95709.63;;;6.69;100.00
12624;BME280;6377;42.836;23.998;2023-04-29T05:39:20;95711.44;;;6.69;100.00
12624;BME280;6377;42.836;23.998;2023-04-29T05:41:47;95702.72;;;6.68;100.00
12624;BME280;6377;42.836;23.998;2023-04-29T05:44:14;95703.31;;;6.80;100.00
12624;BME280;6377;42.836;23.998;2023-04-29T05:46:41;95705.16;;;6.88;100.00
12624;BME280;6377;42.836;23.998;2023-04-29T05:49:08;95696.19;;;6.98;100.00
12624;BME280;6377;42.836;23.998;2023-04-29T05:51:36;95691.00;;;7.14;100.00
12624;BME280;6377;42.836;23.998;2023-04-29T05:54:03;95640.56;;;6.85;100.00
12624;BME280;6377;42.836;23.998;2023-04-29T05:56:31;95689.41;;;7.21;100.00
12624;BME280;6377;42.836;23.998;2023-04-29T05:58:59;95683.66;;;7.26;100.00
12624;BME280;6377;42.836;23.998;2023-04-29T06:01:26;95663.78;;;7.31;100.00
12624;BME280;6377;42.836;23.998;2023-04-29T06:03:53;95693.50;;;7.58;100.00
12624;BME280;6377;42.836;23.998;2023-04-29T06:06:21;95690.53;;;7.61;100.00
12624;BME280;6377;42.836;23.998;2023-04-29T06:08:48;95687.13;;;7.76;100.00
12624;BME280;6377;42.836;23.998;2023-04-29T06:11:15;95640.25;;;7.72;100.00
12624;BME280;6377;42.836;23.998;2023-04-29T06:13:44;95690.03;;;8.15;100.00
12624;BME280;6377;42.836;23.998;2023-04-29T06:16:11;95680.97;;;8.26;100.00
12624;BME280;6377;42.836;23.998;2023-04-29T06:18:38;95653.34;;;8.30;100.00
12624;BME280;6377;42.836;23.998;2023-04-29T06:21:06;95666.97;;;8.58;100.00
12624;BME280;6377;42.836;23.998;2023-04-29T06:23:33;95666.31;;;8.80;96.91
12624;BME280;6377;42.836;23.998;2023-04-29T06:26:00;95671.53;;;8.96;93.47
12624;BME280;6377;42.836;23.998;2023-04-29T06:28:27;95663.44;;;9.06;91.04
12624;BME280;6377;42.836;23.998;2023-04-29T06:30:56;95662.06;;;9.26;88.66
12624;BME280;6377;42.836;23.998;2023-04-29T06:33:23;95666.81;;;9.38;86.21
12624;BME280;6377;42.836;23.998;2023-04-29T06:35:51;95629.56;;;9.33;85.75
12624;BME280;6377;42.836;23.998;2023-04-29T06:38:18;95563.72;;;9.01;79.05
12624;BME280;6377;42.836;23.998;2023-04-29T06:40:45;95661.50;;;9.77;77.48
12624;BME280;6377;42.836;23.998;2023-04-29T06:43:13;95656.88;;;9.79;73.07
12624;BME280;6377;42.836;23.998;2023-04-29T06:45:40;95645.56;;;9.93;71.39
12624;BME280;6377;42.836;23.998;2023-04-29T06:48:08;95620.25;;;9.99;72.95
12624;BME280;6377;42.836;23.998;2023-04-29T06:50:35;95645.41;;;10.40;72.74
12624;BME280;6377;42.836;23.998;2023-04-29T06:53:02;95639.34;;;10.54;69.02
12624;BME280;6377;42.836;23.998;2023-04-29T06:55:30;95598.94;;;10.46;65.06
12624;BME280;6377;42.836;23.998;2023-04-29T06:57:57;95638.31;;;11.07;64.15
12624;BME280;6377;42.836;23.998;2023-04-29T07:00:24;95636.13;;;11.40;58.22
12624;BME280;6377;42.836;23.998;2023-04-29T07:02:51;95637.75;;;11.56;53.63
12624;BME280;6377;42.836;23.998;2023-04-29T07:05:20;95630.31;;;11.80;51.72
12624;BME280;6377;42.836;23.998;2023-04-29T07:07:47;95631.19;;;12.02;50.84
12624;BME280;6377;42.836;23.998;2023-04-29T07:10:14;95632.22;;;12.22;50.63
12624;BME280;6377;42.836;23.998;2023-04-29T07:12:41;95627.13;;;12.49;45.54
12624;BME280;6377;42.836;23.998;2023-04-29T07:15:09;95618.94;;;12.71;48.36
12624;BME280;6377;42.836;23.998;2023-04-29T07:17:36;95589.59;;;12.73;48.40
12624;BME280;6377;42.836;23.998;2023-04-29T07:20:04;95601.25;;;13.06;45.17
12624;BME280;6377;42.836;23.998;2023-04-29T07:22:33;95613.50;;;13.35;44.00
12624;BME280;6377;42.836;23.998;2023-04-29T07:25:00;95609.50;;;13.59;42.73
12624;BME280;6377;42.836;23.998;2023-04-29T07:27:28;95605.09;;;13.79;42.60
12624;BME280;6377;42.836;23.998;2023-04-29T07:29:55;95594.09;;;14.01;39.31
12624;BME280;6377;42.836;23.998;2023-04-29T07:32:22;95612.16;;;14.26;37.47
12624;BME280;6377;42.836;23.998;2023-04-29T07:34:49;95606.88;;;14.39;33.07
12624;BME280;6377;42.836;23.998;2023-04-29T07:37:17;95593.59;;;14.58;35.11
12624;BME280;6377;42.836;23.998;2023-04-29T07:39:45;95596.84;;;14.93;34.92
12624;BME280;6377;42.836;23.998;2023-04-29T07:42:12;95609.94;;;14.88;33.55
12624;BME280;6377;42.836;23.998;2023-04-29T07:44:40;95603.78;;;15.07;35.14
12624;BME280;6377;42.836;23.998;2023-04-29T07:47:07;95587.44;;;14.91;33.08
12624;BME280;6377;42.836;23.998;2023-04-29T07:49:34;95568.16;;;14.89;34.25
12624;BME280;6377;42.836;23.998;2023-04-29T07:52:01;95545.84;;;14.90;33.65
12624;BME280;6377;42.836;23.998;2023-04-29T07:54:28;95607.63;;;15.38;34.26
12624;BME280;6377;42.836;23.998;2023-04-29T07:56:58;95595.97;;;15.32;32.40
12624;BME280;6377;42.836;23.998;2023-04-29T07:59:26;95541.69;;;15.13;35.11
12624;BME280;6377;42.836;23.998;2023-04-29T08:01:53;95610.06;;;15.52;32.90
12624;BME280;6377;42.836;23.998;2023-04-29T08:04:20;95585.88;;;15.41;33.01
12624;BME280;6377;42.836;23.998;2023-04-29T08:06:47;95599.56;;;15.64;33.55
12624;BME280;6377;42.836;23.998;2023-04-29T08:09:15;95580.66;;;15.72;33.54
12624;BME280;6377;42.836;23.998;2023-04-29T08:11:42;95592.19;;;16.04;32.93
12624;BME280;6377;42.836;23.998;2023-04-29T08:14:11;95582.34;;;16.04;32.65
12624;BME280;6377;42.836;23.998;2023-04-29T08:16:39;95571.09;;;16.27;32.60
12624;BME280;6377;42.836;23.998;2023-04-29T08:19:06;95596.84;;;16.46;33.53
12624;BME280;6377;42.836;23.998;2023-04-29T08:21:33;95563.19;;;16.45;33.99
12624;BME280;6377;42.836;23.998;2023-04-29T08:24:00;95591.44;;;16.59;32.47
12624;BME280;6377;42.836;23.998;2023-04-29T08:26:27;95580.53;;;16.30;31.50
12624;BME280;6377;42.836;23.998;2023-04-29T08:28:55;95525.19;;;15.87;31.57
12624;BME280;6377;42.836;23.998;2023-04-29T08:31:23;95591.31;;;16.41;32.30
12624;BME280;6377;42.836;23.998;2023-04-29T08:33:50;95566.00;;;16.57;32.75
12624;BME280;6377;42.836;23.998;2023-04-29T08:36:18;95585.03;;;16.67;31.77
12624;BME280;6377;42.836;23.998;2023-04-29T08:38:45;95481.16;;;16.03;31.62
12624;BME280;6377;42.836;23.998;2023-04-29T08:41:13;95576.16;;;16.73;32.68
12624;BME280;6377;42.836;23.998;2023-04-29T08:43:41;95583.53;;;16.96;32.23
12624;BME280;6377;42.836;23.998;2023-04-29T08:46:09;95561.09;;;16.78;32.88
12624;BME280;6377;42.836;23.998;2023-04-29T08:48:38;95566.78;;;16.82;32.71
12624;BME280;6377;42.836;23.998;2023-04-29T08:51:06;95565.31;;;16.86;32.33
12624;BME280;6377;42.836;23.998;2023-04-29T08:53:33;95573.50;;;16.91;32.53
12624;BME280;6377;42.836;23.998;2023-04-29T08:56:07;95574.41;;;17.03;33.17
12624;BME280;6377;42.836;23.998;2023-04-29T08:58:35;95430.91;;;16.24;33.54
12624;BME280;6377;42.836;23.998;2023-04-29T09:01:07;95517.19;;;16.93;31.57
12624;BME280;6377;42.836;23.998;2023-04-29T09:03:41;95540.28;;;17.23;32.08
12624;BME280;6377;42.836;23.998;2023-04-29T09:06:10;95536.34;;;17.44;31.51
12624;BME280;6377;42.836;23.998;2023-04-29T09:08:38;95564.56;;;17.40;31.84
12624;BME280;6377;42.836;23.998;2023-04-29T09:11:08;95563.16;;;17.38;31.23
12624;BME280;6377;42.836;23.998;2023-04-29T09:13:36;95563.09;;;17.26;31.18
12624;BME280;6377;42.836;23.998;2023-04-29T09:16:09;95568.13;;;17.34;31.19
12624;BME280;6377;42.836;23.998;2023-04-29T09:18:45;95554.25;;;17.44;30.69
12624;BME280;6377;42.836;23.998;2023-04-29T09:21:16;95554.41;;;17.49;30.91
12624;BME280;6377;42.836;23.998;2023-04-29T09:23:45;95548.56;;;17.58;30.36
12624;BME280;6377;42.836;23.998;2023-04-29T09:26:12;95543.91;;;17.83;32.46
12624;BME280;6377;42.836;23.998;2023-04-29T09:28:40;95509.88;;;17.90;31.09
12624;BME280;6377;42.836;23.998;2023-04-29T09:31:10;95544.19;;;18.35;31.19
12624;BME280;6377;42.836;23.998;2023-04-29T09:33:52;95539.91;;;18.45;31.54
12624;BME280;6377;42.836;23.998;2023-04-29T09:36:35;95534.66;;;18.39;29.47
12624;BME280;6377;42.836;23.998;2023-04-29T09:39:03;95519.00;;;18.54;29.42
12624;BME280;6377;42.836;23.998;2023-04-29T09:41:37;95526.13;;;18.72;28.79
12624;BME280;6377;42.836;23.998;2023-04-29T09:44:05;95502.47;;;18.80;30.37
12624;BME280;6377;42.836;23.998;2023-04-29T09:46:32;95496.16;;;19.10;29.13
12624;BME280;6377;42.836;23.998;2023-04-29T09:49:03;95449.84;;;19.14;28.64
12624;BME280;6377;42.836;23.998;2023-04-29T09:51:31;95500.78;;;19.77;28.38
12624;BME280;6377;42.836;23.998;2023-04-29T09:53:59;95461.84;;;19.75;27.17
12624;BME280;6377;42.836;23.998;2023-04-29T09:56:27;95498.31;;;19.47;28.13
12624;BME280;6377;42.836;23.998;2023-04-29T09:59:06;95501.56;;;19.89;27.83
12624;BME280;6377;42.836;23.998;2023-04-29T10:01:34;95515.59;;;20.36;28.04
12624;BME280;6377;42.836;23.998;2023-04-29T10:04:04;95490.13;;;20.39;27.21
12624;BME280;6377;42.836;23.998;2023-04-29T10:06:33;95506.06;;;20.79;26.67
12624;BME280;6377;42.836;23.998;2023-04-29T10:09:00;95495.69;;;21.04;24.76
12624;BME280;6377;42.836;23.998;2023-04-29T10:11:27;95473.53;;;20.97;26.33
12624;BME280;6377;42.836;23.998;2023-04-29T10:13:56;95496.13;;;21.12;25.41
12624;BME280;6377;42.836;23.998;2023-04-29T10:16:28;95371.66;;;20.79;25.66
12624;BME280;6377;42.836;23.998;2023-04-29T10:18:59;95472.25;;;21.86;25.63
12624;BME280;6377;42.836;23.998;2023-04-29T10:21:32;95477.25;;;21.51;25.95
12624;BME280;6377;42.836;23.998;2023-04-29T10:24:01;95465.47;;;20.97;25.55
12624;BME280;6377;42.836;23.998;2023-04-29T10:26:29;95475.22;;;20.64;24.64
12624;BME280;6377;42.836;23.998;2023-04-29T10:28:57;95412.53;;;20.26;25.62
12624;BME280;6377;42.836;23.998;2023-04-29T10:31:26;95432.75;;;20.00;25.80
12624;BME280;6377;42.836;23.998;2023-04-29T10:33:55;95466.00;;;20.44;26.31
12624;BME280;6377;42.836;23.998;2023-04-29T10:36:24;95479.44;;;20.44;25.89
12624;BME280;6377;42.836;23.998;2023-04-29T10:38:57;95471.94;;;20.29;26.31
12624;BME280;6377;42.836;23.998;2023-04-29T10:41:27;95478.81;;;20.08;26.82
12624;BME280;6377;42.836;23.998;2023-04-29T10:43:58;95472.31;;;19.76;26.99
12624;BME280;6377;42.836;23.998;2023-04-29T10:46:25;95477.63;;;19.60;26.82
12624;BME280;6377;42.836;23.998;2023-04-29T10:48:56;95458.84;;;19.20;27.26
12624;BME280;6377;42.836;23.998;2023-04-29T10:51:30;95466.31;;;19.06;28.15
12624;BME280;6377;42.836;23.998;2023-04-29T10:54:01;95459.44;;;19.10;28.17
12624;BME280;6377;42.836;23.998;2023-04-29T10:56:39;95441.28;;;19.00;28.16
12624;BME280;6377;42.836;23.998;2023-04-29T10:59:09;95472.94;;;19.95;28.09
12624;BME280;6377;42.836;23.998;2023-04-29T11:01:48;95454.91;;;20.74;27.46
12624;BME280;6377;42.836;23.998;2023-04-29T11:04:17;95455.78;;;20.57;26.21
12624;BME280;6377;42.836;23.998;2023-04-29T11:06:46;95461.31;;;20.06;26.27
12624;BME280;6377;42.836;23.998;2023-04-29T11:09:20;95458.28;;;19.86;27.10
12624;BME280;6377;42.836;23.998;2023-04-29T11:12:00;95462.34;;;19.88;27.83
12624;BME280;6377;42.836;23.998;2023-04-29T11:14:34;95452.97;;;19.46;27.00
12624;BME280;6377;42.836;23.998;2023-04-29T11:17:03;95458.91;;;19.36;29.04
12624;BME280;6377;42.836;23.998;2023-04-29T11:19:32;95461.50;;;19.31;28.08
12624;BME280;6377;42.836;23.998;2023-04-29T11:22:08;95449.59;;;19.39;28.48
12624;BME280;6377;42.836;23.998;2023-04-29T11:24:48;95455.75;;;19.51;28.65
12624;BME280;6377;42.836;23.998;2023-04-29T11:27:16;95454.59;;;19.75;28.42
12624;BME280;6377;42.836;23.998;2023-04-29T11:29:44;95417.88;;;19.64;27.71
12624;BME280;6377;42.836;23.998;2023-04-29T11:32:12;95451.19;;;19.80;27.29
12624;BME280;6377;42.836;23.998;2023-04-29T11:34:39;95441.81;;;20.10;28.97
12624;BME280;6377;42.836;23.998;2023-04-29T11:37:06;95452.97;;;20.19;27.31
12624;BME280;6377;42.836;23.998;2023-04-29T11:39:34;95441.06;;;20.15;27.50
12624;BME280;6377;42.836;23.998;2023-04-29T11:42:04;95443.75;;;19.98;27.73
12624;BME280;6377;42.836;23.998;2023-04-29T11:44:33;95422.78;;;19.67;28.15
12624;BME280;6377;42.836;23.998;2023-04-29T11:47:01;95387.38;;;19.53;28.61
12624;BME280;6377;42.836;23.998;2023-04-29T11:49:29;95422.50;;;19.80;28.52
12624;BME280;6377;42.836;23.998;2023-04-29T11:51:57;95385.81;;;19.69;29.24
12624;BME280;6377;42.836;23.998;2023-04-29T11:54:25;95439.16;;;20.27;28.93
12624;BME280;6377;42.836;23.998;2023-04-29T11:56:53;95442.59;;;20.39;28.35
12624;BME280;6377;42.836;23.998;2023-04-29T11:59:23;95425.31;;;20.35;27.88
12624;BME280;6377;42.836;23.998;2023-04-29T12:01:50;95446.06;;;20.56;28.58
12624;BME280;6377;42.836;23.998;2023-04-29T12:04:17;95432.69;;;20.61;28.74
12624;BME280;6377;42.836;23.998;2023-04-29T12:06:45;95440.69;;;20.56;28.63
12624;BME280;6377;42.836;23.998;2023-04-29T12:09:13;95392.25;;;20.18;28.23
12624;BME280;6377;42.836;23.998;2023-04-29T12:11:41;95431.50;;;20.36;29.06
12624;BME280;6377;42.836;23.998;2023-04-29T12:14:09;95406.66;;;19.95;28.84
12624;BME280;6377;42.836;23.998;2023-04-29T12:16:38;95431.56;;;20.07;30.13
12624;BME280;6377;42.836;23.998;2023-04-29T12:19:05;95410.25;;;19.73;29.54
12624;BME280;6377;42.836;23.998;2023-04-29T12:21:35;95389.72;;;19.50;29.50
12624;BME280;6377;42.836;23.998;2023-04-29T12:24:02;95436.47;;;19.82;30.08
12624;BME280;6377;42.836;23.998;2023-04-29T12:26:30;95439.78;;;19.73;28.99
12624;BME280;6377;42.836;23.998;2023-04-29T12:28:58;95436.63;;;19.76;30.28
12624;BME280;6377;42.836;23.998;2023-04-29T12:31:31;95437.19;;;19.78;30.51
12624;BME280;6377;42.836;23.998;2023-04-29T12:34:02;95367.38;;;19.44;30.76
12624;BME280;6377;42.836;23.998;2023-04-29T12:36:30;95429.84;;;19.73;29.97
12624;BME280;6377;42.836;23.998;2023-04-29T12:38:58;95406.22;;;19.42;30.89
12624;BME280;6377;42.836;23.998;2023-04-29T12:41:39;95429.44;;;19.65;30.70
12624;BME280;6377;42.836;23.998;2023-04-29T12:44:07;95420.00;;;19.62;31.47
12624;BME280;6377;42.836;23.998;2023-04-29T12:46:36;95404.00;;;19.39;31.43
12624;BME280;6377;42.836;23.998;2023-04-29T12:49:05;95377.97;;;19.51;31.82
12624;BME280;6377;42.836;23.998;2023-04-29T12:51:33;95424.50;;;19.73;31.76
12624;BME280;6377;42.836;23.998;2023-04-29T12:54:03;95421.53;;;19.86;31.66
12624;BME280;6377;42.836;23.998;2023-04-29T12:56:31;95423.66;;;19.56;31.64
12624;BME280;6377;42.836;23.998;2023-04-29T12:59:04;95400.19;;;19.23;31.58
12624;BME280;6377;42.836;23.998;2023-04-29T13:01:33;95383.03;;;19.24;33.10
12624;BME280;6377;42.836;23.998;2023-04-29T13:04:00;95415.56;;;19.28;31.99
12624;BME280;6377;42.836;23.998;2023-04-29T13:06:30;95403.16;;;19.10;32.32